createdAt,value
2018-11-04T00:00:44.235Z,60.60
2018-11-04T00:03:14.276Z,60.60
2018-11-04T00:05:42.888Z,60.60
2018-11-04T00:08:11.596Z,60.70
2018-11-04T00:10:40.272Z,60.60
2018-11-04T00:13:08.987Z,60.60
2018-11-04T00:15:37.644Z,60.50
2018-11-04T00:18:06.440Z,60.60
2018-11-04T00:20:35.027Z,60.60
2018-11-04T00:23:03.704Z,60.50
2018-11-04T00:25:32.389Z,60.60
2018-11-04T00:28:01.089Z,60.50
2018-11-04T00:30:32.216Z,60.50
2018-11-04T00:33:00.904Z,60.40
2018-11-04T00:35:29.599Z,60.40
2018-11-04T00:37:58.280Z,60.40
2018-11-04T00:40:26.963Z,60.50
2018-11-04T00:42:55.652Z,60.30
2018-11-04T00:45:24.066Z,60.40
2018-11-04T00:47:52.622Z,60.30
2018-11-04T00:50:21.308Z,60.40
2018-11-04T00:52:49.987Z,60.30
2018-11-04T00:55:18.679Z,60.30
2018-11-04T00:57:47.367Z,60.20
2018-11-04T01:00:18.257Z,60.30
2018-11-04T01:02:48.101Z,60.20
2018-11-04T01:05:17.813Z,60.20
2018-11-04T01:07:46.238Z,60.20
2018-11-04T01:10:15.220Z,60.30
2018-11-04T01:12:44.276Z,60.40
2018-11-04T01:15:13.907Z,60.30
2018-11-04T01:17:43.095Z,60.30
2018-11-04T01:20:13.564Z,60.10
2018-11-04T01:22:42.097Z,60.10
2018-11-04T01:25:10.726Z,60.10
2018-11-04T01:27:39.387Z,60.00
2018-11-04T01:30:09.982Z,60.30
2018-11-04T01:32:38.424Z,60.10
2018-11-04T01:35:07.184Z,60.00
2018-11-04T01:37:35.623Z,60.00
2018-11-04T01:40:05.328Z,60.10
2018-11-04T01:42:33.963Z,59.90
2018-11-04T01:45:02.648Z,59.90
2018-11-04T01:47:31.327Z,59.90
2018-11-04T01:50:00.044Z,59.90
2018-11-04T01:52:28.700Z,59.90
2018-11-04T01:54:57.701Z,59.90
2018-11-04T01:57:26.074Z,60.40
2018-11-04T01:59:54.395Z,59.80
2018-11-04T02:02:23.051Z,59.90
2018-11-04T02:04:51.722Z,59.90
2018-11-04T02:07:21.254Z,59.90
2018-11-04T02:09:49.915Z,59.90
2018-11-04T02:12:18.632Z,59.80
2018-11-04T02:14:47.091Z,59.70
2018-11-04T02:17:15.427Z,59.80
2018-11-04T02:19:43.862Z,59.90
2018-11-04T02:22:12.542Z,60.00
2018-11-04T02:24:41.212Z,59.70
2018-11-04T02:27:09.919Z,59.80
2018-11-04T02:29:38.581Z,59.70
2018-11-04T02:32:06.947Z,59.80
2018-11-04T02:34:35.555Z,59.80
2018-11-04T02:37:04.256Z,59.80
2018-11-04T02:39:32.580Z,59.90
2018-11-04T02:42:01.212Z,59.80
2018-11-04T02:44:29.975Z,59.70
2018-11-04T02:46:58.684Z,59.70
2018-11-04T02:49:26.927Z,59.80
2018-11-04T02:51:55.550Z,59.90
2018-11-04T02:54:24.679Z,59.60
2018-11-04T02:56:53.316Z,59.60
2018-11-04T02:59:22.017Z,59.60
2018-11-04T03:01:50.728Z,59.50
2018-11-04T03:04:19.368Z,59.60
2018-11-04T03:06:48.055Z,59.60
2018-11-04T03:09:16.536Z,59.70
2018-11-04T03:11:44.877Z,59.60
2018-11-04T03:14:13.202Z,59.60
2018-11-04T03:16:41.608Z,59.70
2018-11-04T03:19:09.940Z,59.60
2018-11-04T03:21:38.513Z,59.50
2018-11-04T03:24:07.787Z,59.60
2018-11-04T03:26:36.318Z,59.40
2018-11-04T03:29:05.471Z,59.40
2018-11-04T03:31:34.091Z,59.50
2018-11-04T03:34:02.783Z,59.40
2018-11-04T03:36:31.458Z,59.50
2018-11-04T03:39:00.164Z,59.40
2018-11-04T03:41:29.399Z,59.40
2018-11-04T03:43:57.943Z,59.50
2018-11-04T03:46:26.616Z,59.40
2018-11-04T03:48:55.334Z,59.30
2018-11-04T03:51:23.995Z,59.40
2018-11-04T03:53:52.693Z,59.60
2018-11-04T03:56:21.356Z,59.30
2018-11-04T03:58:50.049Z,59.40
2018-11-04T04:01:18.736Z,59.30
2018-11-04T04:03:47.451Z,59.40
2018-11-04T04:06:16.127Z,59.20
2018-11-04T04:08:44.794Z,59.30
2018-11-04T04:11:13.117Z,59.40
2018-11-04T04:13:41.756Z,59.40
2018-11-04T04:16:10.444Z,59.20
2018-11-04T04:18:39.128Z,59.30
2018-11-04T04:21:08.923Z,59.30
2018-11-04T04:23:38.439Z,59.20
2018-11-04T04:26:07.669Z,59.30
2018-11-04T04:28:36.331Z,59.40
2018-11-04T04:31:05.314Z,59.20
2018-11-04T04:33:38.212Z,59.20
2018-11-04T04:36:06.913Z,59.20
2018-11-04T04:38:35.585Z,59.30
2018-11-04T04:41:04.268Z,59.40
2018-11-04T04:43:32.939Z,59.80
2018-11-04T04:46:01.651Z,59.40
2018-11-04T04:48:30.319Z,59.30
2018-11-04T04:50:59.026Z,59.30
2018-11-04T04:53:27.697Z,59.30
2018-11-04T04:55:57.495Z,59.30
2018-11-04T04:58:25.827Z,59.30
2018-11-04T05:00:54.876Z,59.30
2018-11-04T05:03:23.759Z,59.30
2018-11-04T05:05:52.344Z,59.40
2018-11-04T05:08:20.668Z,59.40
2018-11-04T05:10:50.131Z,59.20
2018-11-04T05:13:18.692Z,59.30
2018-11-04T05:15:47.026Z,59.30
2018-11-04T05:18:15.785Z,59.40
2018-11-04T05:20:44.456Z,59.60
2018-11-04T05:23:13.140Z,59.30
2018-11-04T05:25:41.834Z,59.40
2018-11-04T05:28:10.158Z,59.60
2018-11-04T05:30:38.851Z,59.50
2018-11-04T05:33:07.576Z,59.30
2018-11-04T05:35:36.157Z,59.40
2018-11-04T05:38:04.946Z,59.50
2018-11-04T05:40:33.535Z,59.80
2018-11-04T05:43:02.215Z,59.40
2018-11-04T05:45:30.900Z,59.60
2018-11-04T05:47:59.591Z,59.40
2018-11-04T05:50:28.273Z,59.40
2018-11-04T05:52:56.955Z,59.50
2018-11-04T05:55:25.292Z,59.60
2018-11-04T05:57:53.924Z,59.50
2018-11-04T06:00:26.297Z,59.60
2018-11-04T06:02:54.985Z,59.50
2018-11-04T06:05:23.684Z,59.50
2018-11-04T06:07:52.353Z,59.60
2018-11-04T06:10:21.037Z,59.90
2018-11-04T06:12:49.719Z,59.70
2018-11-04T06:15:18.416Z,59.60
2018-11-04T06:17:47.110Z,59.60
2018-11-04T06:20:15.781Z,59.60
2018-11-04T06:22:44.788Z,59.70
2018-11-04T06:25:13.135Z,59.70
2018-11-04T06:27:41.480Z,59.80
2018-11-04T06:30:11.636Z,59.90
2018-11-04T06:32:41.775Z,59.70
2018-11-04T06:35:10.771Z,59.70
2018-11-04T06:37:39.455Z,59.90
2018-11-04T06:40:08.643Z,60.10
2018-11-04T06:42:37.216Z,59.90
2018-11-04T06:45:06.826Z,59.90
2018-11-04T06:47:35.473Z,59.90
2018-11-04T06:50:04.191Z,60.10
2018-11-04T06:52:32.783Z,59.90
2018-11-04T06:55:01.460Z,60.10
2018-11-04T06:57:29.803Z,60.00
2018-11-04T06:59:58.503Z,60.20
2018-11-04T07:02:27.127Z,60.10
2018-11-04T07:04:55.794Z,60.20
2018-11-04T07:07:26.538Z,60.20
2018-11-04T07:09:55.219Z,60.20
2018-11-04T07:12:23.883Z,60.20
2018-11-04T07:14:52.224Z,60.30
2018-11-04T07:17:20.861Z,60.50
2018-11-04T07:19:49.552Z,60.10
2018-11-04T07:22:18.247Z,60.00
2018-11-04T07:24:47.217Z,59.80
2018-11-04T07:27:15.551Z,59.30
2018-11-04T07:29:43.884Z,59.00
2018-11-04T07:32:12.648Z,58.40
2018-11-04T07:34:41.247Z,58.00
2018-11-04T07:37:09.577Z,57.80
2018-11-04T07:39:38.212Z,57.60
2018-11-04T07:42:06.893Z,57.30
2018-11-04T07:44:35.574Z,57.00
2018-11-04T07:47:04.324Z,56.90
2018-11-04T07:49:32.957Z,56.70
2018-11-04T07:52:01.627Z,56.60
2018-11-04T07:54:30.347Z,56.60
2018-11-04T07:56:59.093Z,56.50
2018-11-04T07:59:27.708Z,56.40
2018-11-04T08:01:56.377Z,56.30
2018-11-04T08:04:25.080Z,56.30
2018-11-04T08:06:53.404Z,56.30
2018-11-04T08:09:22.032Z,55.90
2018-11-04T08:11:56.446Z,56.00
2018-11-04T08:14:25.123Z,56.00
2018-11-04T08:16:53.444Z,56.10
2018-11-04T08:19:22.102Z,55.80
2018-11-04T08:21:50.792Z,56.00
2018-11-04T08:24:19.755Z,56.00
2018-11-04T08:26:48.138Z,56.10
2018-11-04T08:29:16.875Z,55.90
2018-11-04T08:31:45.511Z,55.90
2018-11-04T08:34:14.196Z,56.00
2018-11-04T08:36:42.916Z,55.90
2018-11-04T08:39:11.864Z,55.80
2018-11-04T08:41:40.257Z,55.80
2018-11-04T08:44:08.945Z,55.90
2018-11-04T08:46:37.681Z,55.90
2018-11-04T08:49:06.349Z,55.90
2018-11-04T08:51:35.308Z,55.90
2018-11-04T08:54:03.733Z,55.80
2018-11-04T08:56:32.390Z,55.80
2018-11-04T08:59:00.720Z,55.80
2018-11-04T09:01:29.389Z,55.80
2018-11-04T09:03:58.030Z,55.80
2018-11-04T09:06:26.848Z,55.70
2018-11-04T09:08:55.406Z,55.80
2018-11-04T09:11:23.891Z,56.00
2018-11-04T09:13:52.365Z,55.80
2018-11-04T09:16:21.039Z,55.70
2018-11-04T09:18:49.739Z,55.80
2018-11-04T09:21:18.459Z,56.00
2018-11-04T09:23:47.173Z,55.90
2018-11-04T09:26:15.817Z,55.80
2018-11-04T09:28:44.478Z,56.00
2018-11-04T09:31:13.167Z,56.00
2018-11-04T09:33:41.870Z,55.90
2018-11-04T09:36:10.390Z,55.90
2018-11-04T09:38:38.847Z,56.20
2018-11-04T09:41:07.533Z,56.10
2018-11-04T09:43:35.876Z,55.80
2018-11-04T09:46:04.507Z,56.00
2018-11-04T09:48:33.171Z,56.20
2018-11-04T09:51:01.853Z,56.30
2018-11-04T09:53:30.549Z,56.10
2018-11-04T09:55:59.042Z,56.20
2018-11-04T09:58:27.619Z,56.40
2018-11-04T10:00:56.187Z,56.30
2018-11-04T10:03:24.889Z,56.10
2018-11-04T10:05:53.563Z,56.30
2018-11-04T10:08:22.805Z,56.40
2018-11-04T10:10:51.335Z,56.30
2018-11-04T10:13:20.087Z,56.30
2018-11-04T10:15:48.720Z,56.60
2018-11-04T10:18:17.419Z,56.50
2018-11-04T10:20:46.428Z,56.40
2018-11-04T10:23:14.836Z,56.40
2018-11-04T10:25:43.463Z,56.50
2018-11-04T10:28:12.166Z,56.80
2018-11-04T10:30:40.487Z,56.50
2018-11-04T10:33:08.968Z,56.50
2018-11-04T10:35:37.449Z,56.80
2018-11-04T10:38:06.391Z,56.80
2018-11-04T10:40:34.760Z,56.60
2018-11-04T10:43:03.448Z,56.50
2018-11-04T10:45:32.144Z,56.80
2018-11-04T10:48:00.871Z,56.70
2018-11-04T10:50:29.301Z,56.60
2018-11-04T10:52:57.789Z,56.80
2018-11-04T10:55:26.475Z,56.90
2018-11-04T10:57:55.169Z,56.80
2018-11-04T11:00:29.222Z,56.70
2018-11-04T11:02:57.863Z,57.00
2018-11-04T11:05:26.551Z,57.10
2018-11-04T11:07:55.035Z,57.00
2018-11-04T11:10:23.515Z,56.90
2018-11-04T11:12:52.211Z,57.20
2018-11-04T11:15:20.907Z,57.20
2018-11-04T11:17:49.588Z,57.00
2018-11-04T11:20:18.272Z,56.90
2018-11-04T11:22:47.108Z,57.10
2018-11-04T11:25:15.643Z,57.20
2018-11-04T11:27:44.736Z,57.00
2018-11-04T11:30:13.500Z,57.10
2018-11-04T11:32:42.120Z,57.30
2018-11-04T11:35:10.598Z,57.40
2018-11-04T11:37:39.116Z,57.30
2018-11-04T11:40:08.488Z,57.30
2018-11-04T11:42:36.887Z,57.40
2018-11-04T11:45:06.431Z,57.40
2018-11-04T11:47:35.156Z,57.30
2018-11-04T11:50:04.314Z,57.50
2018-11-04T11:52:32.888Z,57.60
2018-11-04T11:55:01.524Z,57.50
2018-11-04T11:57:29.847Z,57.50
2018-11-04T11:59:58.307Z,57.50
2018-11-04T12:02:26.789Z,57.60
2018-11-04T12:04:55.456Z,57.60
2018-11-04T12:07:24.151Z,57.50
2018-11-04T12:09:53.679Z,57.50
2018-11-04T12:12:22.358Z,57.60
2018-11-04T12:14:51.095Z,57.70
2018-11-04T12:17:19.739Z,57.60
2018-11-04T12:19:48.447Z,57.80
2018-11-04T12:22:17.110Z,58.00
2018-11-04T12:24:45.792Z,58.00
2018-11-04T12:27:14.505Z,57.80
2018-11-04T12:29:43.191Z,57.90
2018-11-04T12:32:11.616Z,58.10
2018-11-04T12:34:40.142Z,57.90
2018-11-04T12:37:08.851Z,57.90
2018-11-04T12:39:37.501Z,58.10
2018-11-04T12:42:06.216Z,58.20
2018-11-04T12:44:34.683Z,58.10
2018-11-04T12:47:03.166Z,58.00
2018-11-04T12:49:31.832Z,58.20
2018-11-04T12:52:00.184Z,58.30
2018-11-04T12:54:28.813Z,58.00
2018-11-04T12:56:57.540Z,58.00
2018-11-04T12:59:25.983Z,58.30
2018-11-04T13:01:54.471Z,58.30
2018-11-04T13:04:23.154Z,58.20
2018-11-04T13:06:51.539Z,58.10
2018-11-04T13:09:20.125Z,58.30
2018-11-04T13:11:48.597Z,58.20
2018-11-04T13:14:17.083Z,58.10
2018-11-04T13:16:45.768Z,58.20
2018-11-04T13:19:14.449Z,58.30
2018-11-04T13:21:43.132Z,58.30
2018-11-04T13:24:11.824Z,58.20
2018-11-04T13:26:40.513Z,58.20
2018-11-04T13:29:09.202Z,58.40
2018-11-04T13:31:37.682Z,58.50
2018-11-04T13:34:06.243Z,58.50
2018-11-04T13:36:34.640Z,58.50
2018-11-04T13:39:03.727Z,58.60
2018-11-04T13:41:32.643Z,58.50
2018-11-04T13:44:01.320Z,58.40
2018-11-04T13:46:29.999Z,58.50
2018-11-04T13:48:58.693Z,58.60
2018-11-04T13:51:27.383Z,58.60
2018-11-04T13:53:56.096Z,58.30
2018-11-04T13:56:24.759Z,58.50
2018-11-04T13:58:54.169Z,58.60
2018-11-04T14:01:22.609Z,58.70
2018-11-04T14:03:51.223Z,58.50
2018-11-04T14:06:19.900Z,58.50
2018-11-04T14:08:48.596Z,58.80
2018-11-04T14:11:17.082Z,58.80
2018-11-04T14:13:45.560Z,58.50
2018-11-04T14:16:14.255Z,58.60
2018-11-04T14:18:43.001Z,58.70
2018-11-04T14:21:11.624Z,58.70
2018-11-04T14:23:40.339Z,58.60
2018-11-04T14:26:09.299Z,58.70
2018-11-04T14:28:37.708Z,59.00
2018-11-04T14:31:06.530Z,58.80
2018-11-04T14:33:35.085Z,58.70
2018-11-04T14:36:03.779Z,58.90
2018-11-04T14:38:32.245Z,58.90
2018-11-04T14:41:00.619Z,58.80
2018-11-04T14:43:29.024Z,58.70
2018-11-04T14:45:57.757Z,58.80
2018-11-04T14:48:26.176Z,58.90
2018-11-04T14:50:54.675Z,58.80
2018-11-04T14:53:23.044Z,58.80
2018-11-04T14:55:51.656Z,58.90
2018-11-04T14:58:20.966Z,58.90
2018-11-04T15:00:49.471Z,58.90
2018-11-04T15:03:18.088Z,58.80
2018-11-04T15:05:46.755Z,59.00
2018-11-04T15:08:15.455Z,59.10
2018-11-04T15:10:43.859Z,59.00
2018-11-04T15:13:13.223Z,58.90
2018-11-04T15:15:42.680Z,59.10
2018-11-04T15:18:11.447Z,59.20
2018-11-04T15:20:40.102Z,59.20
2018-11-04T15:23:08.834Z,59.00
2018-11-04T15:25:37.656Z,59.20
2018-11-04T15:28:07.283Z,59.30
2018-11-04T15:30:36.588Z,59.30
2018-11-04T15:33:05.576Z,59.00
2018-11-04T15:35:34.883Z,59.20
2018-11-04T15:38:03.411Z,59.10
2018-11-04T15:40:32.225Z,59.00
2018-11-04T15:43:00.729Z,58.90
2018-11-04T15:45:29.238Z,59.20
2018-11-04T15:47:58.113Z,59.20
2018-11-04T15:50:26.947Z,59.10
2018-11-04T15:52:56.614Z,59.00
2018-11-04T15:55:25.874Z,59.10
2018-11-04T15:57:54.842Z,59.10
2018-11-04T16:00:23.843Z,59.00
2018-11-04T16:02:52.797Z,58.90
2018-11-04T16:05:21.646Z,59.10
2018-11-04T16:07:50.048Z,59.20
2018-11-04T16:10:18.751Z,59.00
2018-11-04T16:12:47.441Z,59.00
2018-11-04T16:15:16.411Z,59.20
2018-11-04T16:17:45.261Z,59.20
2018-11-04T16:20:14.807Z,59.60
2018-11-04T16:22:44.116Z,59.60
2018-11-04T16:25:13.219Z,59.90
2018-11-04T16:27:42.106Z,59.70
2018-11-04T16:30:11.791Z,59.50
2018-11-04T16:32:40.241Z,59.50
2018-11-04T16:35:10.626Z,59.50
2018-11-04T16:37:39.723Z,59.40
2018-11-04T16:40:08.812Z,59.20
2018-11-04T16:42:37.703Z,59.10
2018-11-04T16:45:08.201Z,59.20
2018-11-04T16:47:36.922Z,59.30
2018-11-04T16:50:05.917Z,59.00
2018-11-04T16:52:34.230Z,59.20
2018-11-04T16:55:02.609Z,59.30
2018-11-04T16:57:31.204Z,59.10
2018-11-04T16:59:59.859Z,59.10
2018-11-04T17:02:33.094Z,59.00
2018-11-04T17:05:01.856Z,59.10
2018-11-04T17:07:30.498Z,59.20
2018-11-04T17:09:59.162Z,59.10
2018-11-04T17:12:27.847Z,59.20
2018-11-04T17:14:56.203Z,59.10
2018-11-04T17:17:26.804Z,59.10
2018-11-04T17:19:55.529Z,59.10
2018-11-04T17:22:24.263Z,59.00
2018-11-04T17:24:53.038Z,59.00
2018-11-04T17:27:21.650Z,59.00
2018-11-04T17:29:50.119Z,59.00
2018-11-04T17:32:19.193Z,58.80
2018-11-04T17:34:47.644Z,58.50
2018-11-04T17:37:16.302Z,58.80
2018-11-04T17:39:45.004Z,58.80
2018-11-04T17:42:13.739Z,59.00
2018-11-04T17:44:42.406Z,59.00
2018-11-04T17:47:11.041Z,58.90
2018-11-04T17:49:39.823Z,58.70
2018-11-04T17:52:08.400Z,58.90
2018-11-04T17:54:37.075Z,58.80
2018-11-04T17:57:05.572Z,58.80
2018-11-04T17:59:34.059Z,58.80
2018-11-04T18:02:02.413Z,58.90
2018-11-04T18:04:30.799Z,58.90
2018-11-04T18:06:59.316Z,58.80
2018-11-04T18:09:27.983Z,58.70
2018-11-04T18:11:56.679Z,58.80
2018-11-04T18:14:25.135Z,58.80
2018-11-04T18:16:53.499Z,58.80
2018-11-04T18:19:21.900Z,58.70
2018-11-04T18:21:50.588Z,58.90
2018-11-04T18:24:19.277Z,58.70
2018-11-04T18:26:48.943Z,58.80
2018-11-04T18:29:17.487Z,59.20
2018-11-04T18:31:45.820Z,60.60
2018-11-04T18:34:14.843Z,60.90
2018-11-04T18:36:43.540Z,61.30
2018-11-04T18:39:12.224Z,61.70
2018-11-04T18:41:40.924Z,62.10
2018-11-04T18:44:10.090Z,62.50
2018-11-04T18:46:38.355Z,62.90
2018-11-04T18:49:07.012Z,63.20
2018-11-04T18:51:35.931Z,63.40
2018-11-04T18:54:04.261Z,63.60
2018-11-04T18:56:32.624Z,63.90
2018-11-04T18:59:01.362Z,64.00
2018-11-04T19:01:30.024Z,64.10
2018-11-04T19:03:58.347Z,64.30
2018-11-04T19:06:26.979Z,64.50
2018-11-04T19:08:55.307Z,64.60
2018-11-04T19:11:24.077Z,64.60
2018-11-04T19:13:52.624Z,64.80
2018-11-04T19:16:21.304Z,64.90
2018-11-04T19:18:50.052Z,64.90
2018-11-04T19:21:18.679Z,65.00
2018-11-04T19:23:47.376Z,65.10
2018-11-04T19:26:16.054Z,65.30
2018-11-04T19:28:44.536Z,65.40
2018-11-04T19:31:13.138Z,65.40
2018-11-04T19:33:41.760Z,65.40
2018-11-04T19:36:10.384Z,65.50
2018-11-04T19:38:39.066Z,65.60
2018-11-04T19:41:07.762Z,65.60
2018-11-04T19:43:36.451Z,65.60
2018-11-04T19:46:05.143Z,65.70
2018-11-04T19:48:33.934Z,65.80
2018-11-04T19:51:02.643Z,65.80
2018-11-04T19:53:31.192Z,65.70
2018-11-04T19:56:00.179Z,65.80
2018-11-04T19:58:28.567Z,65.80
2018-11-04T20:00:57.261Z,65.90
2018-11-04T20:03:25.939Z,65.90
2018-11-04T20:05:54.665Z,65.90
2018-11-04T20:08:23.324Z,65.80
2018-11-04T20:10:51.996Z,65.90
2018-11-04T20:13:26.069Z,65.90
2018-11-04T20:15:54.695Z,65.90
2018-11-04T20:18:28.663Z,65.90
2018-11-04T20:20:57.388Z,65.90
2018-11-04T20:23:26.094Z,66.00
2018-11-04T20:25:59.998Z,66.00
2018-11-04T20:28:28.529Z,65.90
2018-11-04T20:30:57.044Z,66.00
2018-11-04T20:33:25.755Z,66.00
2018-11-04T20:35:54.462Z,66.10
2018-11-04T20:38:28.418Z,66.10
2018-11-04T20:41:02.527Z,66.10
2018-11-04T20:43:30.884Z,66.10
2018-11-04T20:45:59.412Z,66.10
2018-11-04T20:48:33.416Z,66.10
2018-11-04T20:51:04.659Z,66.10
2018-11-04T20:53:33.097Z,66.10
2018-11-04T20:56:06.717Z,66.10
2018-11-04T20:58:35.090Z,66.10
2018-11-04T21:01:03.807Z,66.10
2018-11-04T21:03:32.497Z,66.10
2018-11-04T21:06:01.198Z,66.10
2018-11-04T21:08:31.376Z,66.10
2018-11-04T21:10:59.789Z,66.10
2018-11-04T21:13:29.223Z,66.10
2018-11-04T21:15:58.162Z,66.10
2018-11-04T21:18:26.456Z,66.10
2018-11-04T21:20:54.935Z,66.00
2018-11-04T21:23:23.624Z,66.00
2018-11-04T21:25:52.372Z,66.10
2018-11-04T21:28:21.054Z,66.00
2018-11-04T21:30:50.177Z,65.90
2018-11-04T21:33:18.592Z,66.00
2018-11-04T21:35:47.051Z,65.90
2018-11-04T21:38:15.704Z,65.90
2018-11-04T21:40:44.430Z,65.90
2018-11-04T21:43:13.237Z,66.00
2018-11-04T21:45:41.453Z,65.90
2018-11-04T21:48:10.072Z,65.90
2018-11-04T21:50:38.754Z,65.90
2018-11-04T21:53:07.444Z,65.90
2018-11-04T21:55:36.384Z,65.80
2018-11-04T21:58:09.056Z,65.90
2018-11-04T22:00:37.624Z,65.90
2018-11-04T22:03:06.343Z,65.90
2018-11-04T22:05:34.879Z,65.90
2018-11-04T22:08:03.247Z,65.90
2018-11-04T22:10:31.972Z,66.00
2018-11-04T22:13:00.629Z,65.90
2018-11-04T22:15:29.317Z,65.90
2018-11-04T22:17:58.002Z,65.90
2018-11-04T22:20:26.704Z,65.90
2018-11-04T22:22:55.371Z,65.80
2018-11-04T22:25:23.723Z,65.90
2018-11-04T22:27:52.124Z,65.90
2018-11-04T22:30:20.599Z,66.00
2018-11-04T22:32:50.208Z,65.90
2018-11-04T22:35:18.622Z,66.00
2018-11-04T22:37:47.064Z,66.00
2018-11-04T22:40:15.783Z,65.90
2018-11-04T22:42:44.439Z,65.90
2018-11-04T22:45:13.423Z,65.90
2018-11-04T22:47:42.722Z,65.80
2018-11-04T22:50:14.583Z,65.80
2018-11-04T22:52:43.575Z,65.80
2018-11-04T22:55:12.747Z,65.80
2018-11-04T22:57:41.972Z,65.80
2018-11-04T23:00:16.435Z,65.80
2018-11-04T23:02:45.688Z,65.80
2018-11-04T23:05:19.424Z,65.80
2018-11-04T23:07:48.098Z,65.80
2018-11-04T23:10:16.800Z,65.70
2018-11-04T23:12:45.451Z,65.60
2018-11-04T23:15:14.765Z,65.70
2018-11-04T23:17:43.539Z,65.70
2018-11-04T23:20:12.951Z,65.70
2018-11-04T23:22:41.302Z,65.70
2018-11-04T23:25:12.191Z,65.60
2018-11-04T23:27:41.992Z,65.70
2018-11-04T23:30:13.515Z,65.60
2018-11-04T23:32:42.337Z,65.70
2018-11-04T23:35:11.568Z,65.60
2018-11-04T23:37:40.203Z,65.60
2018-11-04T23:40:09.299Z,65.60
2018-11-04T23:42:37.697Z,65.60
2018-11-04T23:45:07.263Z,65.50
2018-11-04T23:47:35.668Z,65.60
2018-11-04T23:50:05.215Z,65.60
2018-11-04T23:52:33.854Z,65.60
2018-11-04T23:55:02.547Z,65.60
2018-11-04T23:57:31.191Z,65.50
2018-11-04T23:59:59.895Z,65.60
